Time,TemperatureF,DewpointF,PressureIn,WindDirection,WindDirectionDegrees,WindSpeedMPH,WindSpeedGustMPH,Humidity,HourlyPrecipIn,Conditions,Clouds,dailyrainin,SoftwareType,DateUTC
2013-03-30 00:02:00,28.8,13.8,30.10,ESE,122,0.0,5.0,53,0.00,,,0.00,meteohub,2013-03-30 04:02:00,
2013-03-30 00:07:00,28.6,14.0,30.10,SSE,168,0.0,5.0,54,0.00,,,0.00,meteohub,2013-03-30 04:07:00,
2013-03-30 00:12:00,28.2,13.8,30.10,West,280,0.0,4.0,54,0.00,,,0.00,meteohub,2013-03-30 04:12:00,
2013-03-30 00:17:00,28.2,14.2,30.10,WNW,302,0.0,0.0,55,0.00,,,0.00,meteohub,2013-03-30 04:17:00,
2013-03-30 00:22:00,28.0,14.0,30.10,WSW,258,0.0,0.0,55,0.00,,,0.00,meteohub,2013-03-30 04:22:00,
2013-03-30 00:27:00,28.2,14.5,30.10,WSW,258,0.0,0.0,56,0.00,,,0.00,meteohub,2013-03-30 04:27:00,
2013-03-30 00:32:00,28.2,14.5,30.10,WSW,258,0.0,0.0,56,0.00,,,0.00,meteohub,2013-03-30 04:32:00,
2013-03-30 00:37:00,28.0,14.4,30.10,WNW,302,0.0,0.0,56,0.00,,,0.00,meteohub,2013-03-30 04:37:00,
2013-03-30 00:42:00,28.0,14.4,30.10,WNW,302,0.0,0.0,56,0.00,,,0.00,meteohub,2013-03-30 04:42:00,
2013-03-30 00:47:00,28.2,14.5,30.10,WNW,302,0.0,0.0,56,0.00,,,0.00,meteohub,2013-03-30 04:47:00,
2013-03-30 00:52:00,28.2,14.5,30.10,WNW,302,0.0,0.0,56,0.00,,,0.00,meteohub,2013-03-30 04:52:00,
2013-03-30 00:57:00,28.2,14.9,30.10,NNW,348,0.0,0.0,57,0.00,,,0.00,meteohub,2013-03-30 04:57:00,
2013-03-30 01:02:00,28.0,14.7,30.10,NNW,348,0.0,0.0,57,0.00,,,0.00,meteohub,2013-03-30 05:02:00,
2013-03-30 01:07:00,28.0,14.7,30.10,North,10,0.0,0.0,57,0.00,,,0.00,meteohub,2013-03-30 05:07:00,
2013-03-30 01:12:00,28.2,15.4,30.10,SSE,168,0.0,0.0,58,0.00,,,0.00,meteohub,2013-03-30 05:12:00,
2013-03-30 01:17:00,28.0,14.7,30.10,ESE,122,0.0,0.0,57,0.00,,,0.00,meteohub,2013-03-30 05:17:00,
2013-03-30 01:22:00,28.0,15.3,30.10,NNW,348,3.0,3.0,58,0.00,,,0.00,meteohub,2013-03-30 05:22:00,
2013-03-30 01:27:00,27.7,14.9,30.07,ENE,78,0.0,4.0,58,0.00,,,0.00,meteohub,2013-03-30 05:27:00,
2013-03-30 01:32:00,27.5,14.7,30.07,SE,145,0.0,4.0,58,0.00,,,0.00,meteohub,2013-03-30 05:32:00,
2013-03-30 01:37:00,27.3,14.5,30.07,East,100,0.0,4.0,58,0.00,,,0.00,meteohub,2013-03-30 05:37:00,
2013-03-30 01:42:00,27.3,14.9,30.10,SSW,212,0.0,0.0,59,0.00,,,0.00,meteohub,2013-03-30 05:42:00,
2013-03-30 01:47:00,27.3,15.3,30.10,West,280,0.0,0.0,60,0.00,,,0.00,meteohub,2013-03-30 05:47:00,
2013-03-30 01:52:00,27.1,15.1,30.10,West,280,0.0,0.0,60,0.00,,,0.00,meteohub,2013-03-30 05:52:00,
2013-03-30 02:02:00,27.1,15.4,30.10,South,190,0.0,0.0,61,0.00,,,0.00,meteohub,2013-03-30 06:02:00,
2013-03-30 02:07:00,27.1,15.1,30.10,ESE,122,0.0,5.0,60,0.00,,,0.00,meteohub,2013-03-30 06:07:00,
2013-03-30 02:12:00,27.0,14.9,30.10,East,100,0.0,5.0,60,0.00,,,0.00,meteohub,2013-03-30 06:12:00,
2013-03-30 02:17:00,27.1,15.4,30.10,East,100,0.0,0.0,61,0.00,,,0.00,meteohub,2013-03-30 06:17:00,
2013-03-30 02:22:00,27.3,15.6,30.10,NNW,348,0.0,0.0,61,0.00,,,0.00,meteohub,2013-03-30 06:22:00,
2013-03-30 02:27:00,27.3,16.0,30.10,ENE,78,0.0,0.0,62,0.00,,,0.00,meteohub,2013-03-30 06:27:00,
2013-03-30 02:32:00,27.3,16.0,30.10,SSE,168,0.0,0.0,62,0.00,,,0.00,meteohub,2013-03-30 06:32:00,
2013-03-30 02:42:00,27.5,16.2,30.10,SSE,168,0.0,0.0,62,0.00,,,0.00,meteohub,2013-03-30 06:42:00,
2013-03-30 02:47:00,27.7,16.7,30.10,North,10,0.0,0.0,63,0.00,,,0.00,meteohub,2013-03-30 06:47:00,
2013-03-30 02:57:00,27.1,16.2,30.10,North,10,0.0,0.0,63,0.00,,,0.00,meteohub,2013-03-30 06:57:00,
2013-03-30 03:02:00,27.0,16.0,30.10,NNE,32,0.0,0.0,63,0.00,,,0.00,meteohub,2013-03-30 07:02:00,
2013-03-30 03:07:00,26.6,15.4,30.10,East,100,3.0,0.0,62,0.00,,,0.00,meteohub,2013-03-30 07:07:00,
2013-03-30 03:12:00,26.4,15.6,30.10,East,100,0.0,4.0,63,0.00,,,0.00,meteohub,2013-03-30 07:12:00,
2013-03-30 03:17:00,26.2,15.4,30.10,SE,145,0.0,4.0,63,0.00,,,0.00,meteohub,2013-03-30 07:17:00,
2013-03-30 03:22:00,26.4,16.3,30.10,SE,145,0.0,4.0,65,0.00,,,0.00,meteohub,2013-03-30 07:22:00,
2013-03-30 03:27:00,26.2,15.8,30.07,SE,145,0.0,0.0,64,0.00,,,0.00,meteohub,2013-03-30 07:27:00,
2013-03-30 03:37:00,26.1,16.0,30.07,NE,55,0.0,0.0,65,0.00,,,0.00,meteohub,2013-03-30 07:37:00,
2013-03-30 03:42:00,25.9,15.8,30.13,East,100,0.0,0.0,65,0.00,,,0.00,meteohub,2013-03-30 07:42:00,
2013-03-30 03:47:00,25.9,15.8,30.13,East,100,0.0,0.0,65,0.00,,,0.00,meteohub,2013-03-30 07:47:00,
2013-03-30 03:52:00,25.9,16.2,30.13,NNE,32,0.0,0.0,66,0.00,,,0.00,meteohub,2013-03-30 07:52:00,
2013-03-30 03:57:00,26.1,16.0,30.10,North,10,0.0,3.0,65,0.00,,,0.00,meteohub,2013-03-30 07:57:00,
2013-03-30 04:02:00,26.1,16.3,30.10,East,100,0.0,3.0,66,0.00,,,0.00,meteohub,2013-03-30 08:02:00,
2013-03-30 04:07:00,26.1,16.3,30.10,East,100,0.0,0.0,66,0.00,,,0.00,meteohub,2013-03-30 08:07:00,
2013-03-30 04:12:00,26.1,16.7,30.10,East,100,0.0,0.0,67,0.00,,,0.00,meteohub,2013-03-30 08:12:00,
2013-03-30 04:17:00,26.2,16.5,30.10,East,100,0.0,0.0,66,0.00,,,0.00,meteohub,2013-03-30 08:17:00,
2013-03-30 04:22:00,26.2,16.9,30.10,North,10,0.0,0.0,67,0.00,,,0.00,meteohub,2013-03-30 08:22:00,
2013-03-30 04:27:00,26.1,16.7,30.07,North,10,0.0,0.0,67,0.00,,,0.00,meteohub,2013-03-30 08:27:00,
2013-03-30 04:32:00,26.1,16.7,30.07,East,100,0.0,0.0,67,0.00,,,0.00,meteohub,2013-03-30 08:32:00,
2013-03-30 04:37:00,26.1,16.7,30.07,East,100,0.0,0.0,67,0.00,,,0.00,meteohub,2013-03-30 08:37:00,
2013-03-30 04:42:00,26.2,17.1,30.10,North,10,0.0,0.0,68,0.00,,,0.00,meteohub,2013-03-30 08:42:00,
2013-03-30 04:47:00,26.1,16.7,30.10,North,10,0.0,0.0,67,0.00,,,0.00,meteohub,2013-03-30 08:47:00,
2013-03-30 04:52:00,25.9,16.9,30.10,NE,55,0.0,0.0,68,0.00,,,0.00,meteohub,2013-03-30 08:52:00,
2013-03-30 05:02:00,25.3,16.3,30.10,South,190,0.0,0.0,68,0.00,,,0.00,meteohub,2013-03-30 09:02:00,
2013-03-30 05:07:00,25.2,16.2,30.10,South,190,0.0,0.0,68,0.00,,,0.00,meteohub,2013-03-30 09:07:00,
2013-03-30 05:12:00,24.8,16.2,30.10,SSW,212,0.0,0.0,69,0.00,,,0.00,meteohub,2013-03-30 09:12:00,
2013-03-30 05:17:00,24.6,16.0,30.10,SSW,212,0.0,0.0,69,0.00,,,0.00,meteohub,2013-03-30 09:17:00,
2013-03-30 05:27:00,24.6,16.0,30.10,ENE,78,0.0,0.0,69,0.00,,,0.00,meteohub,2013-03-30 09:27:00,
2013-03-30 05:37:00,24.6,16.3,30.10,ENE,78,0.0,0.0,70,0.00,,,0.00,meteohub,2013-03-30 09:37:00,
2013-03-30 05:42:00,24.6,16.3,30.10,North,10,0.0,0.0,70,0.00,,,0.00,meteohub,2013-03-30 09:42:00,
2013-03-30 05:52:00,24.6,16.9,30.10,WSW,258,0.0,0.0,72,0.00,,,0.00,meteohub,2013-03-30 09:52:00,
2013-03-30 05:57:00,24.4,16.7,30.10,WSW,258,0.0,0.0,72,0.00,,,0.00,meteohub,2013-03-30 09:57:00,
2013-03-30 06:07:00,24.4,16.7,30.10,North,10,0.0,0.0,72,0.00,,,0.00,meteohub,2013-03-30 10:07:00,
2013-03-30 06:12:00,24.4,16.7,30.10,NE,55,0.0,0.0,72,0.00,,,0.00,meteohub,2013-03-30 10:12:00,
2013-03-30 06:17:00,24.6,17.2,30.10,NE,55,0.0,0.0,73,0.00,,,0.00,meteohub,2013-03-30 10:17:00,
2013-03-30 06:22:00,24.6,16.9,30.10,NE,55,0.0,0.0,72,0.00,,,0.00,meteohub,2013-03-30 10:22:00,
2013-03-30 06:27:00,24.6,16.9,30.10,ENE,78,0.0,0.0,72,0.00,,,0.00,meteohub,2013-03-30 10:27:00,
2013-03-30 06:32:00,24.6,16.9,30.10,ENE,78,0.0,0.0,72,0.00,,,0.00,meteohub,2013-03-30 10:32:00,
2013-03-30 06:37:00,24.8,17.1,30.10,NNW,348,2.0,0.0,72,0.00,,,0.00,meteohub,2013-03-30 10:37:00,
2013-03-30 06:42:00,24.8,17.4,30.10,West,280,0.0,3.0,73,0.00,,,0.00,meteohub,2013-03-30 10:42:00,
2013-03-30 06:47:00,24.6,17.2,30.10,NW,325,0.0,3.0,73,0.00,,,0.00,meteohub,2013-03-30 10:47:00,
2013-03-30 06:52:00,24.3,16.5,30.10,NNE,32,0.0,3.0,72,0.00,,,0.00,meteohub,2013-03-30 10:52:00,
2013-03-30 06:57:00,24.3,16.5,30.10,NNE,32,0.0,0.0,72,0.00,,,0.00,meteohub,2013-03-30 10:57:00,
2013-03-30 07:02:00,24.3,17.2,30.10,NNE,32,0.0,0.0,74,0.00,,,0.00,meteohub,2013-03-30 11:02:00,
2013-03-30 07:12:00,24.3,17.2,30.10,SSW,212,3.0,5.0,74,0.00,,,0.00,meteohub,2013-03-30 11:12:00,
2013-03-30 07:17:00,24.3,17.2,30.10,South,190,0.0,5.0,74,0.00,,,0.00,meteohub,2013-03-30 11:17:00,
2013-03-30 07:27:00,24.1,17.1,30.10,SSE,168,5.0,5.0,74,0.00,,,0.00,meteohub,2013-03-30 11:27:00,
2013-03-30 07:32:00,24.4,18.3,30.10,NNW,348,5.0,6.0,77,0.00,,,0.00,meteohub,2013-03-30 11:32:00,
2013-03-30 07:37:00,24.4,18.9,30.10,SW,235,3.0,7.0,79,0.00,,,0.00,meteohub,2013-03-30 11:37:00,
2013-03-30 07:42:00,24.4,18.5,30.13,South,190,0.0,7.0,78,0.00,,,0.00,meteohub,2013-03-30 11:42:00,
2013-03-30 07:47:00,24.4,18.3,30.13,NW,325,0.0,7.0,77,0.00,,,0.00,meteohub,2013-03-30 11:47:00,
2013-03-30 07:52:00,24.4,18.0,30.13,North,10,0.0,5.0,76,0.00,,,0.00,meteohub,2013-03-30 11:52:00,
2013-03-30 07:57:00,24.4,18.0,30.13,North,10,0.0,3.0,76,0.00,,,0.00,meteohub,2013-03-30 11:57:00,
2013-03-30 08:07:00,24.8,18.3,30.13,ESE,122,4.0,4.0,76,0.00,,,0.00,meteohub,2013-03-30 12:07:00,
2013-03-30 08:12:00,25.2,19.2,30.13,NNW,348,3.0,5.0,78,0.00,,,0.00,meteohub,2013-03-30 12:12:00,
2013-03-30 08:17:00,25.2,19.2,30.13,NNW,348,0.0,6.0,78,0.00,,,0.00,meteohub,2013-03-30 12:17:00,
2013-03-30 08:22:00,25.2,19.0,30.13,SSE,168,2.0,6.0,77,0.00,,,0.00,meteohub,2013-03-30 12:22:00,
2013-03-30 08:27:00,25.5,19.6,30.13,SSW,212,0.0,6.0,78,0.00,,,0.00,meteohub,2013-03-30 12:27:00,
2013-03-30 08:32:00,25.7,19.6,30.13,East,100,3.0,4.0,77,0.00,,,0.00,meteohub,2013-03-30 12:32:00,
2013-03-30 08:37:00,26.1,19.9,30.13,East,100,2.0,4.0,77,0.00,,,0.00,meteohub,2013-03-30 12:37:00,
2013-03-30 08:42:00,26.4,20.5,30.16,East,100,0.0,3.0,78,0.00,,,0.00,meteohub,2013-03-30 12:42:00,
2013-03-30 08:47:00,26.8,20.5,30.16,East,100,0.0,3.0,77,0.00,,,0.00,meteohub,2013-03-30 12:47:00,
2013-03-30 08:52:00,27.1,20.8,30.16,East,100,0.0,3.0,77,0.00,,,0.00,meteohub,2013-03-30 12:52:00,
2013-03-30 08:57:00,27.5,21.2,30.16,ESE,122,0.0,0.0,77,0.00,,,0.00,meteohub,2013-03-30 12:57:00,
2013-03-30 09:07:00,28.6,22.3,30.16,South,190,0.0,0.0,77,0.00,,,0.00,meteohub,2013-03-30 13:07:00,
2013-03-30 09:12:00,29.1,22.8,30.16,South,190,0.0,0.0,77,0.00,,,0.00,meteohub,2013-03-30 13:12:00,
2013-03-30 09:22:00,30.7,24.1,30.16,NNE,32,0.0,0.0,76,0.00,,,0.00,meteohub,2013-03-30 13:22:00,
2013-03-30 09:32:00,33.8,27.7,30.16,North,10,2.0,0.0,78,0.00,,,0.00,meteohub,2013-03-30 13:32:00,
2013-03-30 09:37:00,34.7,27.9,30.16,NNW,348,3.0,5.0,76,0.00,,,0.00,meteohub,2013-03-30 13:37:00,
2013-03-30 09:47:00,37.2,28.4,30.16,NNW,348,4.0,5.0,70,0.00,,,0.00,meteohub,2013-03-30 13:47:00,
2013-03-30 09:52:00,38.8,29.3,30.16,NNE,32,0.0,5.0,68,0.00,,,0.00,meteohub,2013-03-30 13:52:00,
2013-03-30 09:57:00,41.4,31.6,30.16,North,10,0.0,5.0,68,0.00,,,0.00,meteohub,2013-03-30 13:57:00,
2013-03-30 10:02:00,43.7,32.4,30.16,ENE,78,0.0,5.0,64,0.00,,,0.00,meteohub,2013-03-30 14:02:00,
2013-03-30 10:07:00,46.2,32.4,30.16,NE,55,0.0,3.0,58,0.00,,,0.00,meteohub,2013-03-30 14:07:00,
2013-03-30 10:17:00,51.1,33.1,30.16,NNW,348,2.0,3.0,50,0.00,,,0.00,meteohub,2013-03-30 14:17:00,
2013-03-30 10:22:00,52.5,30.2,30.16,NNE,32,0.0,3.0,42,0.00,,,0.00,meteohub,2013-03-30 14:22:00,
2013-03-30 10:32:00,54.5,29.5,30.13,ESE,122,3.0,4.0,38,0.00,,,0.00,meteohub,2013-03-30 14:32:00,
2013-03-30 10:37:00,55.2,28.0,30.13,ESE,122,4.0,5.0,35,0.00,,,0.00,meteohub,2013-03-30 14:37:00,
2013-03-30 10:42:00,54.9,27.1,30.13,North,10,0.0,5.0,34,0.00,,,0.00,meteohub,2013-03-30 14:42:00,
2013-03-30 10:47:00,56.5,29.1,30.13,East,100,0.0,6.0,35,0.00,,,0.00,meteohub,2013-03-30 14:47:00,
2013-03-30 10:52:00,56.8,25.7,30.13,SW,235,6.0,6.0,30,0.00,,,0.00,meteohub,2013-03-30 14:52:00,
2013-03-30 11:02:00,55.8,23.2,30.10,WSW,258,3.0,12.0,28,0.00,,,0.00,meteohub,2013-03-30 15:02:00,
2013-03-30 11:07:00,56.7,23.9,30.10,WSW,258,8.0,12.0,28,0.00,,,0.00,meteohub,2013-03-30 15:07:00,
2013-03-30 11:17:00,56.3,22.8,30.10,East,100,4.0,14.0,27,0.00,,,0.00,meteohub,2013-03-30 15:17:00,
2013-03-30 11:22:00,56.7,23.2,30.10,WSW,258,6.0,14.0,27,0.00,,,0.00,meteohub,2013-03-30 15:22:00,
2013-03-30 11:27:00,56.3,21.9,30.07,WSW,258,6.0,13.0,26,0.00,,,0.00,meteohub,2013-03-30 15:27:00,
2013-03-30 11:32:00,56.8,23.4,30.07,WNW,302,8.0,13.0,27,0.00,,,0.00,meteohub,2013-03-30 15:32:00,
2013-03-30 11:37:00,56.7,22.3,30.07,NNW,348,8.0,12.0,26,0.00,,,0.00,meteohub,2013-03-30 15:37:00,
2013-03-30 11:42:00,57.0,22.5,30.07,NW,325,5.0,16.0,26,0.00,,,0.00,meteohub,2013-03-30 15:42:00,
2013-03-30 11:47:00,56.8,22.5,30.07,West,280,5.0,16.0,26,0.00,,,0.00,meteohub,2013-03-30 15:47:00,
2013-03-30 11:52:00,57.4,22.8,30.07,NW,325,8.0,13.0,26,0.00,,,0.00,meteohub,2013-03-30 15:52:00,
2013-03-30 11:57:00,57.6,23.0,30.10,WNW,302,5.0,15.0,26,0.00,,,0.00,meteohub,2013-03-30 15:57:00,
2013-03-30 12:02:00,58.5,23.7,30.10,SSW,212,3.0,15.0,26,0.00,,,0.00,meteohub,2013-03-30 16:02:00,
2013-03-30 12:07:00,57.9,23.4,30.10,NNW,348,10.0,15.0,26,0.00,,,0.00,meteohub,2013-03-30 16:07:00,
2013-03-30 12:12:00,58.1,23.5,30.10,WNW,302,8.0,14.0,26,0.00,,,0.00,meteohub,2013-03-30 16:12:00,
2013-03-30 12:17:00,57.6,22.1,30.10,SSE,168,8.0,14.0,25,0.00,,,0.00,meteohub,2013-03-30 16:17:00,
2013-03-30 12:22:00,59.0,23.4,30.10,WSW,258,12.0,14.0,25,0.00,,,0.00,meteohub,2013-03-30 16:22:00,
2013-03-30 12:27:00,59.5,23.7,30.07,WSW,258,5.0,15.0,25,0.00,,,0.00,meteohub,2013-03-30 16:27:00,
2013-03-30 12:32:00,58.8,23.2,30.07,NNE,32,9.0,15.0,25,0.00,,,0.00,meteohub,2013-03-30 16:32:00,
2013-03-30 12:42:00,57.2,21.7,30.07,WNW,302,15.0,22.0,25,0.00,,,0.00,meteohub,2013-03-30 16:42:00,
2013-03-30 12:47:00,57.7,22.3,30.07,NNW,348,15.0,22.0,25,0.00,,,0.00,meteohub,2013-03-30 16:47:00,
2013-03-30 12:57:00,55.9,21.6,30.07,NNW,348,12.0,21.0,26,0.00,,,0.00,meteohub,2013-03-30 16:57:00,
2013-03-30 13:02:00,56.1,21.7,30.07,WNW,302,9.0,21.0,26,0.00,,,0.00,meteohub,2013-03-30 17:02:00,
2013-03-30 13:07:00,58.6,23.0,30.07,WSW,258,7.0,21.0,25,0.00,,,0.00,meteohub,2013-03-30 17:07:00,
2013-03-30 13:17:00,57.7,22.3,30.07,West,280,6.0,26.0,25,0.00,,,0.00,meteohub,2013-03-30 17:17:00,
2013-03-30 13:27:00,58.8,23.2,30.07,WNW,302,11.0,21.0,25,0.00,,,0.00,meteohub,2013-03-30 17:27:00,
2013-03-30 13:32:00,57.6,22.1,30.07,WNW,302,15.0,20.0,25,0.00,,,0.00,meteohub,2013-03-30 17:32:00,
2013-03-30 13:37:00,59.4,23.5,30.07,NW,325,20.0,24.0,25,0.00,,,0.00,meteohub,2013-03-30 17:37:00,
2013-03-30 13:42:00,59.0,23.4,30.07,North,10,8.0,24.0,25,0.00,,,0.00,meteohub,2013-03-30 17:42:00,
2013-03-30 13:47:00,58.8,23.2,30.07,SSW,212,5.0,22.0,25,0.00,,,0.00,meteohub,2013-03-30 17:47:00,
2013-03-30 13:57:00,61.5,24.4,30.04,NE,55,3.0,21.0,24,0.00,,,0.00,meteohub,2013-03-30 17:57:00,
2013-03-30 14:02:00,61.3,24.3,30.04,NNE,32,8.0,20.0,24,0.00,,,0.00,meteohub,2013-03-30 18:02:00,
2013-03-30 14:12:00,61.2,24.1,30.04,NNE,32,3.0,16.0,24,0.00,,,0.00,meteohub,2013-03-30 18:12:00,
2013-03-30 14:17:00,61.9,24.8,30.04,WSW,258,6.0,21.0,24,0.00,,,0.00,meteohub,2013-03-30 18:17:00,
2013-03-30 14:27:00,59.0,22.3,30.04,NNW,348,15.0,16.0,24,0.00,,,0.00,meteohub,2013-03-30 18:27:00,
2013-03-30 14:32:00,59.5,22.8,30.04,NNW,348,17.0,17.0,24,0.00,,,0.00,meteohub,2013-03-30 18:32:00,
2013-03-30 14:42:00,59.7,23.0,30.01,West,280,5.0,25.0,24,0.00,,,0.00,meteohub,2013-03-30 18:42:00,
2013-03-30 14:47:00,60.4,23.5,30.01,SE,145,8.0,25.0,24,0.00,,,0.00,meteohub,2013-03-30 18:47:00,
2013-03-30 14:52:00,61.0,24.1,30.01,SW,235,11.0,26.0,24,0.00,,,0.00,meteohub,2013-03-30 18:52:00,
2013-03-30 15:02:00,59.4,22.6,30.01,WNW,302,6.0,26.0,24,0.00,,,0.00,meteohub,2013-03-30 19:02:00,
2013-03-30 15:07:00,60.6,23.7,30.01,SSE,168,10.0,22.0,24,0.00,,,0.00,meteohub,2013-03-30 19:07:00,
2013-03-30 15:12:00,61.5,24.4,30.04,South,190,9.0,22.0,24,0.00,,,0.00,meteohub,2013-03-30 19:12:00,
2013-03-30 15:22:00,60.4,23.5,30.04,NNW,348,16.0,17.0,24,0.00,,,0.00,meteohub,2013-03-30 19:22:00,
2013-03-30 15:27:00,60.4,23.5,30.01,WNW,302,7.0,29.0,24,0.00,,,0.00,meteohub,2013-03-30 19:27:00,
2013-03-30 15:32:00,61.0,24.1,30.01,WNW,302,9.0,29.0,24,0.00,,,0.00,meteohub,2013-03-30 19:32:00,
2013-03-30 15:42:00,62.1,25.0,30.01,WNW,302,4.0,17.0,24,0.00,,,0.00,meteohub,2013-03-30 19:42:00,
2013-03-30 15:47:00,62.6,24.3,30.01,ENE,78,5.0,16.0,23,0.00,,,0.00,meteohub,2013-03-30 19:47:00,
2013-03-30 15:57:00,63.9,25.3,29.99,WSW,258,13.0,13.0,23,0.00,,,0.00,meteohub,2013-03-30 19:57:00,
2013-03-30 16:02:00,62.4,25.2,29.99,WNW,302,6.0,17.0,24,0.00,,,0.00,meteohub,2013-03-30 20:02:00,
2013-03-30 16:07:00,61.7,24.6,29.99,WNW,302,17.0,17.0,24,0.00,,,0.00,meteohub,2013-03-30 20:07:00,
2013-03-30 16:17:00,60.6,23.7,29.99,NNW,348,13.0,21.0,24,0.00,,,0.00,meteohub,2013-03-30 20:17:00,
2013-03-30 16:22:00,60.1,23.2,29.99,WNW,302,12.0,21.0,24,0.00,,,0.00,meteohub,2013-03-30 20:22:00,
2013-03-30 16:32:00,59.7,23.0,29.99,WNW,302,15.0,26.0,24,0.00,,,0.00,meteohub,2013-03-30 20:32:00,
2013-03-30 16:37:00,60.1,23.2,29.99,WNW,302,8.0,21.0,24,0.00,,,0.00,meteohub,2013-03-30 20:37:00,
2013-03-30 16:42:00,60.8,23.9,29.99,WNW,302,8.0,21.0,24,0.00,,,0.00,meteohub,2013-03-30 20:42:00,
2013-03-30 16:47:00,61.3,24.3,29.99,North,10,6.0,21.0,24,0.00,,,0.00,meteohub,2013-03-30 20:47:00,
2013-03-30 16:52:00,62.1,25.0,29.99,WSW,258,6.0,13.0,24,0.00,,,0.00,meteohub,2013-03-30 20:52:00,
2013-03-30 17:02:00,62.6,24.3,29.99,SSE,168,4.0,16.0,23,0.00,,,0.00,meteohub,2013-03-30 21:02:00,
2013-03-30 17:12:00,63.0,24.6,29.99,NNW,348,11.0,13.0,23,0.00,,,0.00,meteohub,2013-03-30 21:12:00,
2013-03-30 17:22:00,61.7,24.6,29.99,WSW,258,4.0,16.0,24,0.00,,,0.00,meteohub,2013-03-30 21:22:00,
2013-03-30 17:27:00,61.9,24.8,29.99,SW,235,8.0,16.0,24,0.00,,,0.00,meteohub,2013-03-30 21:27:00,
2013-03-30 17:32:00,61.5,21.2,29.99,NNE,32,4.0,20.0,21,0.00,,,0.00,meteohub,2013-03-30 21:32:00,
2013-03-30 17:37:00,61.3,21.2,29.99,West,280,2.0,20.0,21,0.00,,,0.00,meteohub,2013-03-30 21:37:00,
2013-03-30 17:47:00,59.5,22.8,29.99,West,280,12.0,16.0,24,0.00,,,0.00,meteohub,2013-03-30 21:47:00,
2013-03-30 17:52:00,58.8,20.1,29.99,NW,325,8.0,16.0,22,0.00,,,0.00,meteohub,2013-03-30 21:52:00,
2013-03-30 17:57:00,58.5,19.8,29.99,NNW,348,11.0,16.0,22,0.00,,,0.00,meteohub,2013-03-30 21:57:00,
2013-03-30 18:02:00,59.7,23.0,29.99,NW,325,4.0,17.0,24,0.00,,,0.00,meteohub,2013-03-30 22:02:00,
2013-03-30 18:07:00,59.9,23.0,29.99,NNW,348,13.0,17.0,24,0.00,,,0.00,meteohub,2013-03-30 22:07:00,
2013-03-30 18:12:00,58.8,20.1,29.99,NNW,348,12.0,17.0,22,0.00,,,0.00,meteohub,2013-03-30 22:12:00,
2013-03-30 18:17:00,58.1,21.6,29.99,WNW,302,7.0,14.0,24,0.00,,,0.00,meteohub,2013-03-30 22:17:00,
2013-03-30 18:22:00,57.9,21.4,29.99,WNW,302,4.0,14.0,24,0.00,,,0.00,meteohub,2013-03-30 22:22:00,
2013-03-30 18:27:00,57.9,21.4,29.96,NNW,348,9.0,13.0,24,0.00,,,0.00,meteohub,2013-03-30 22:27:00,
2013-03-30 18:32:00,57.0,21.6,29.96,WNW,302,2.0,9.0,25,0.00,,,0.00,meteohub,2013-03-30 22:32:00,
2013-03-30 18:37:00,56.5,21.2,29.96,ESE,122,0.0,9.0,25,0.00,,,0.00,meteohub,2013-03-30 22:37:00,
2013-03-30 18:42:00,56.3,21.0,29.99,North,10,0.0,9.0,25,0.00,,,0.00,meteohub,2013-03-30 22:42:00,
2013-03-30 18:47:00,55.8,20.5,29.99,SSW,212,0.0,7.0,25,0.00,,,0.00,meteohub,2013-03-30 22:47:00,
2013-03-30 18:57:00,55.2,20.1,29.99,ENE,78,0.0,5.0,25,0.00,,,0.00,meteohub,2013-03-30 22:57:00,
2013-03-30 19:02:00,55.0,19.9,29.99,ENE,78,0.0,5.0,25,0.00,,,0.00,meteohub,2013-03-30 23:02:00,
2013-03-30 19:12:00,54.0,19.9,29.99,ESE,122,3.0,4.0,26,0.00,,,0.00,meteohub,2013-03-30 23:12:00,
2013-03-30 19:17:00,53.4,19.4,29.99,ESE,122,3.0,4.0,26,0.00,,,0.00,meteohub,2013-03-30 23:17:00,
2013-03-30 19:27:00,52.0,18.1,29.99,SE,145,4.0,5.0,26,0.00,,,0.00,meteohub,2013-03-30 23:27:00,
2013-03-30 19:32:00,51.3,17.6,29.99,SE,145,3.0,5.0,26,0.00,,,0.00,meteohub,2013-03-30 23:32:00,
2013-03-30 19:37:00,50.5,17.8,29.99,SSE,168,4.0,5.0,27,0.00,,,0.00,meteohub,2013-03-30 23:37:00,
2013-03-30 19:47:00,48.9,16.5,29.99,SSE,168,0.0,5.0,27,0.00,,,0.00,meteohub,2013-03-30 23:47:00,
2013-03-30 19:52:00,48.4,16.0,29.99,ESE,122,4.0,5.0,27,0.00,,,0.00,meteohub,2013-03-30 23:52:00,
2013-03-30 19:57:00,48.2,16.7,29.99,ESE,122,4.0,5.0,28,0.00,,,0.00,meteohub,2013-03-30 23:57:00,
2013-03-30 20:02:00,47.5,16.2,29.99,SE,145,3.0,5.0,28,0.00,,,0.00,meteohub,2013-03-31 00:02:00,
2013-03-30 20:07:00,46.9,15.6,29.99,SSE,168,3.0,5.0,28,0.00,,,0.00,meteohub,2013-03-31 00:07:00,
2013-03-30 20:12:00,46.6,15.3,29.99,SE,145,3.0,4.0,28,0.00,,,0.00,meteohub,2013-03-31 00:12:00,
2013-03-30 20:17:00,46.0,15.6,29.99,ESE,122,0.0,4.0,29,0.00,,,0.00,meteohub,2013-03-31 00:17:00,
2013-03-30 20:22:00,45.3,15.1,29.99,SSE,168,0.0,4.0,29,0.00,,,0.00,meteohub,2013-03-31 00:22:00,
2013-03-30 20:27:00,45.1,15.6,29.99,South,190,0.0,3.0,30,0.00,,,0.00,meteohub,2013-03-31 00:27:00,
2013-03-30 20:32:00,44.6,15.1,29.99,SSE,168,0.0,2.0,30,0.00,,,0.00,meteohub,2013-03-31 00:32:00,
2013-03-30 20:42:00,43.7,15.1,29.99,SSE,168,0.0,0.0,31,0.00,,,0.00,meteohub,2013-03-31 00:42:00,
2013-03-30 20:52:00,43.2,16.2,29.99,SE,145,2.0,4.0,33,0.00,,,0.00,meteohub,2013-03-31 00:52:00,
2013-03-30 20:57:00,42.6,16.3,29.99,SE,145,0.0,4.0,34,0.00,,,0.00,meteohub,2013-03-31 00:57:00,
2013-03-30 21:07:00,42.3,16.0,29.99,SSE,168,0.0,3.0,34,0.00,,,0.00,meteohub,2013-03-31 01:07:00,
2013-03-30 21:12:00,41.7,16.2,29.99,East,100,0.0,0.0,35,0.00,,,0.00,meteohub,2013-03-31 01:12:00,
2013-03-30 21:17:00,41.2,16.3,29.99,East,100,0.0,0.0,36,0.00,,,0.00,meteohub,2013-03-31 01:17:00,
2013-03-30 21:22:00,41.2,16.9,29.99,South,190,0.0,0.0,37,0.00,,,0.00,meteohub,2013-03-31 01:22:00,
2013-03-30 21:32:00,40.3,16.7,29.99,ESE,122,0.0,0.0,38,0.00,,,0.00,meteohub,2013-03-31 01:32:00,
2013-03-30 21:37:00,40.3,17.4,29.99,ESE,122,2.0,0.0,39,0.00,,,0.00,meteohub,2013-03-31 01:37:00,
2013-03-30 21:42:00,40.5,17.6,29.99,SSW,212,0.0,4.0,39,0.00,,,0.00,meteohub,2013-03-31 01:42:00,
2013-03-30 21:52:00,39.6,17.2,29.99,NNE,32,0.0,4.0,40,0.00,,,0.00,meteohub,2013-03-31 01:52:00,
2013-03-30 22:02:00,39.0,17.4,29.99,WNW,302,0.0,0.0,41,0.00,,,0.00,meteohub,2013-03-31 02:02:00,
2013-03-30 22:07:00,38.7,17.1,29.99,WNW,302,0.0,0.0,41,0.00,,,0.00,meteohub,2013-03-31 02:07:00,
2013-03-30 22:17:00,38.3,17.2,29.96,NNE,32,0.0,0.0,42,0.00,,,0.00,meteohub,2013-03-31 02:17:00,
2013-03-30 22:22:00,38.1,17.1,29.96,NNE,32,0.0,0.0,42,0.00,,,0.00,meteohub,2013-03-31 02:22:00,
2013-03-30 22:27:00,38.1,17.1,29.99,WNW,302,2.0,0.0,42,0.00,,,0.00,meteohub,2013-03-31 02:27:00,
2013-03-30 22:32:00,37.9,17.4,29.99,NW,325,0.0,3.0,43,0.00,,,0.00,meteohub,2013-03-31 02:32:00,
2013-03-30 22:42:00,37.9,18.0,29.99,West,280,0.0,3.0,44,0.00,,,0.00,meteohub,2013-03-31 02:42:00,
2013-03-30 22:52:00,37.8,17.8,29.99,East,100,0.0,0.0,44,0.00,,,0.00,meteohub,2013-03-31 02:52:00,
2013-03-30 22:57:00,37.6,17.8,29.99,North,10,2.0,3.0,44,0.00,,,0.00,meteohub,2013-03-31 02:57:00,
2013-03-30 23:02:00,37.4,18.1,29.99,ENE,78,3.0,4.0,45,0.00,,,0.00,meteohub,2013-03-31 03:02:00,
2013-03-30 23:07:00,37.0,18.7,29.99,North,10,0.0,4.0,47,0.00,,,0.00,meteohub,2013-03-31 03:07:00,
2013-03-30 23:12:00,36.9,18.1,29.99,SSE,168,3.0,4.0,46,0.00,,,0.00,meteohub,2013-03-31 03:12:00,
2013-03-30 23:22:00,36.9,18.5,29.99,South,190,0.0,4.0,47,0.00,,,0.00,meteohub,2013-03-31 03:22:00,
2013-03-30 23:32:00,36.7,18.9,29.99,North,10,2.0,3.0,48,0.00,,,0.00,meteohub,2013-03-31 03:32:00,
2013-03-30 23:37:00,36.5,19.2,29.99,South,190,0.0,4.0,49,0.00,,,0.00,meteohub,2013-03-31 03:37:00,
2013-03-30 23:42:00,36.5,19.2,29.96,East,100,0.0,4.0,49,0.00,,,0.00,meteohub,2013-03-31 03:42:00,
2013-03-30 23:47:00,36.3,19.0,29.96,ENE,78,0.0,4.0,49,0.00,,,0.00,meteohub,2013-03-31 03:47:00,
2013-03-30 23:52:00,36.1,19.4,29.96,North,10,0.0,0.0,50,0.00,,,0.00,meteohub,2013-03-31 03:52:00,
2013-03-30 23:57:00,36.1,19.4,29.99,East,100,0.0,5.0,50,0.00,,,0.00,meteohub,2013-03-31 03:57:00,